createdAt,value
2018-09-08T00:00:49.674Z,11
2018-09-08T00:05:52.174Z,11
2018-09-08T00:10:54.591Z,11
2018-09-08T00:15:57.278Z,11
2018-09-08T00:20:59.511Z,12
2018-09-08T00:26:02.014Z,11
2018-09-08T00:36:06.869Z,12
2018-09-08T00:41:09.350Z,13
2018-09-08T00:46:12.000Z,13
2018-09-08T00:51:14.268Z,12
2018-09-08T00:56:16.710Z,11
2018-09-08T01:01:19.220Z,12
2018-09-08T01:06:21.631Z,12
2018-09-08T01:11:24.093Z,12
2018-09-08T01:16:26.580Z,12
2018-09-08T01:21:29.052Z,12
2018-09-08T01:26:31.477Z,14
2018-09-08T01:31:33.948Z,13
2018-09-08T01:36:36.372Z,13
2018-09-08T01:41:38.844Z,13
2018-09-08T01:46:41.301Z,12
2018-09-08T01:51:43.750Z,13
2018-09-08T01:56:46.223Z,12
2018-09-08T02:01:48.664Z,13
2018-09-08T02:06:51.140Z,12
2018-09-08T02:11:53.613Z,12
2018-09-08T02:16:56.052Z,13
2018-09-08T02:21:58.570Z,12
2018-09-08T02:27:00.949Z,12
2018-09-08T02:32:03.425Z,11
2018-09-08T02:37:05.910Z,11
2018-09-08T02:42:08.324Z,13
2018-09-08T02:47:10.822Z,11
2018-09-08T02:52:13.246Z,10
2018-09-08T02:57:15.733Z,11
2018-09-08T03:02:18.156Z,11
2018-09-08T03:07:20.656Z,10
2018-09-08T03:12:23.237Z,11
2018-09-08T03:17:25.535Z,10
2018-09-08T03:22:28.018Z,11
2018-09-08T03:27:30.455Z,12
2018-09-08T03:32:32.913Z,10
2018-09-08T03:37:35.478Z,14
2018-09-08T03:42:37.888Z,12
2018-09-08T03:47:40.316Z,14
2018-09-08T03:52:42.864Z,13
2018-09-08T03:57:45.611Z,13
2018-09-08T04:02:47.671Z,13
2018-09-08T04:07:50.242Z,14
2018-09-08T04:12:52.649Z,14
2018-09-08T04:17:55.132Z,14
2018-09-08T04:22:57.520Z,13
2018-09-08T04:28:00.141Z,13
2018-09-08T04:33:02.583Z,13
2018-09-08T04:38:04.876Z,15
2018-09-08T04:43:07.330Z,15
2018-09-08T04:48:09.780Z,15
2018-09-08T04:53:12.235Z,15
2018-09-08T04:58:14.704Z,15
2018-09-08T05:03:17.181Z,15
2018-09-08T05:08:19.649Z,17
2018-09-08T05:13:22.216Z,17
2018-09-08T05:18:24.509Z,15
2018-09-08T05:23:26.986Z,16
2018-09-08T05:28:29.444Z,16
2018-09-08T05:33:32.066Z,17
2018-09-08T05:38:34.352Z,15
2018-09-08T05:43:37.080Z,16
2018-09-08T05:48:39.636Z,14
2018-09-08T05:53:41.733Z,12
2018-09-08T05:58:44.213Z,11
2018-09-08T06:03:46.663Z,12
2018-09-08T06:08:49.132Z,12
2018-09-08T06:13:51.685Z,11
2018-09-08T06:18:54.063Z,13
2018-09-08T06:23:56.499Z,12
2018-09-08T06:28:58.935Z,11
2018-09-08T06:34:01.397Z,11
2018-09-08T06:39:03.925Z,11
2018-09-08T06:44:06.555Z,12
2018-09-08T06:49:08.769Z,13
2018-09-08T06:54:11.292Z,11
2018-09-08T06:59:13.709Z,12
2018-09-08T07:04:16.163Z,10
2018-09-08T07:09:18.651Z,9
2018-09-08T07:14:21.114Z,8
2018-09-08T07:19:23.531Z,9
2018-09-08T07:24:25.981Z,8
2018-09-08T07:29:28.439Z,9
2018-09-08T07:34:31.006Z,7
2018-09-08T07:39:33.386Z,7
2018-09-08T07:44:36.041Z,7
2018-09-08T07:49:38.281Z,5
2018-09-08T07:54:40.795Z,6
2018-09-08T07:59:43.205Z,5
2018-09-08T08:04:45.657Z,5
2018-09-08T08:09:48.121Z,4
2018-09-08T08:14:50.703Z,4
2018-09-08T08:19:53.101Z,4
2018-09-08T08:24:55.484Z,3
2018-09-08T08:29:57.963Z,4
2018-09-08T08:35:00.410Z,3
2018-09-08T08:40:02.879Z,4
2018-09-08T08:45:05.345Z,3
2018-09-08T08:50:07.789Z,3
2018-09-08T08:55:10.243Z,4
2018-09-08T09:00:12.702Z,4
2018-09-08T09:05:15.176Z,4
2018-09-08T09:10:17.638Z,4
2018-09-08T09:15:20.387Z,5
2018-09-08T09:20:22.537Z,5
2018-09-08T09:25:25.006Z,5
2018-09-08T09:30:27.535Z,4
2018-09-08T09:35:30.064Z,5
2018-09-08T09:40:32.730Z,5
2018-09-08T09:45:34.842Z,5
2018-09-08T09:50:37.350Z,4
2018-09-08T09:55:39.753Z,4
2018-09-08T10:00:42.197Z,4
2018-09-08T10:05:44.679Z,4
2018-09-08T10:10:47.151Z,3
2018-09-08T10:15:49.844Z,4
2018-09-08T10:20:52.129Z,4
2018-09-08T10:25:54.541Z,5
2018-09-08T10:30:56.971Z,4
2018-09-08T10:35:59.438Z,4
2018-09-08T10:41:01.888Z,3
2018-09-08T10:46:04.576Z,4
2018-09-08T10:51:06.798Z,4
2018-09-08T10:56:09.255Z,3
2018-09-08T11:01:11.710Z,4
2018-09-08T11:06:14.159Z,3
2018-09-08T11:11:16.619Z,3
2018-09-08T11:16:19.090Z,3
2018-09-08T11:21:21.534Z,3
2018-09-08T11:26:24.005Z,2
2018-09-08T11:31:26.461Z,3
2018-09-08T11:36:28.970Z,3
2018-09-08T11:41:31.383Z,3
2018-09-08T11:46:33.896Z,2
2018-09-08T11:51:36.351Z,3
2018-09-08T11:56:38.803Z,2
2018-09-08T12:01:41.324Z,2
2018-09-08T12:06:43.666Z,2
2018-09-08T12:11:46.163Z,2
2018-09-08T12:16:48.589Z,2
2018-09-08T12:21:51.159Z,2
2018-09-08T12:26:53.504Z,3
2018-09-08T12:31:55.993Z,2
2018-09-08T12:36:58.451Z,3
2018-09-08T12:42:00.897Z,2
2018-09-08T12:47:03.336Z,2
2018-09-08T12:52:05.807Z,2
2018-09-08T12:57:08.262Z,2
2018-09-08T13:02:10.782Z,2
2018-09-08T13:07:13.216Z,2
2018-09-08T13:12:15.615Z,2
2018-09-08T13:17:18.127Z,2
2018-09-08T13:22:20.552Z,2
2018-09-08T13:27:23.011Z,4
2018-09-08T13:32:25.511Z,2
2018-09-08T13:37:27.918Z,2
2018-09-08T13:42:30.412Z,2
2018-09-08T13:47:32.828Z,2
2018-09-08T13:52:35.331Z,2
2018-09-08T13:57:37.789Z,2
2018-09-08T14:02:40.427Z,2
2018-09-08T14:07:42.790Z,3
2018-09-08T14:12:45.133Z,2
2018-09-08T14:17:47.596Z,1
2018-09-08T14:22:50.440Z,2
2018-09-08T14:27:52.725Z,2
2018-09-08T14:32:55.117Z,2
2018-09-08T14:37:57.459Z,2
2018-09-08T14:42:59.895Z,2
2018-09-08T14:48:02.424Z,2
2018-09-08T14:53:04.803Z,2
2018-09-08T14:58:07.692Z,2
2018-09-08T15:03:09.732Z,1
2018-09-08T15:08:12.188Z,2
2018-09-08T15:13:14.642Z,2
2018-09-08T15:18:17.137Z,2
2018-09-08T15:23:19.596Z,2
2018-09-08T15:28:22.133Z,2
2018-09-08T15:33:24.472Z,3
2018-09-08T15:38:27.054Z,2
2018-09-08T15:43:29.755Z,2
2018-09-08T15:48:31.844Z,2
2018-09-08T15:53:34.295Z,2
2018-09-08T15:58:36.795Z,2
2018-09-08T16:03:39.224Z,2
2018-09-08T16:08:41.683Z,2
2018-09-08T16:13:44.147Z,4
2018-09-08T16:18:46.618Z,3
2018-09-08T16:23:49.109Z,5
2018-09-08T16:28:51.516Z,2
2018-09-08T16:33:53.972Z,3
2018-09-08T16:38:56.426Z,2
2018-09-08T16:43:58.999Z,2
2018-09-08T16:49:01.338Z,2
2018-09-08T16:54:03.814Z,2
2018-09-08T16:59:06.356Z,2
2018-09-08T17:04:08.723Z,3
2018-09-08T17:09:11.187Z,3
2018-09-08T17:14:13.691Z,3
2018-09-08T17:19:16.123Z,4
2018-09-08T17:24:18.597Z,4
2018-09-08T17:29:21.091Z,4
2018-09-08T17:34:23.479Z,5
2018-09-08T17:39:25.961Z,4
2018-09-08T17:44:28.400Z,4
2018-09-08T17:49:30.852Z,4
2018-09-08T17:54:33.452Z,4
2018-09-08T17:59:35.780Z,4
2018-09-08T18:04:38.229Z,4
2018-09-08T18:09:40.673Z,5
2018-09-08T18:14:43.306Z,5
2018-09-08T18:19:45.595Z,5
2018-09-08T18:24:48.098Z,8
2018-09-08T18:29:50.561Z,8
2018-09-08T18:34:53.070Z,5
2018-09-08T18:39:55.459Z,4
2018-09-08T18:44:57.930Z,6
2018-09-08T18:50:00.381Z,9
2018-09-08T18:55:02.827Z,10
2018-09-08T19:00:05.302Z,9
2018-09-08T19:05:07.718Z,7
2018-09-08T19:10:10.195Z,7
2018-09-08T19:15:12.656Z,8
2018-09-08T19:20:15.097Z,7
2018-09-08T19:30:20.020Z,6
2018-09-08T19:35:22.472Z,6
2018-09-08T19:40:24.933Z,6
2018-09-08T19:45:27.382Z,6
2018-09-08T19:50:29.830Z,8
2018-09-08T19:55:32.290Z,9
2018-09-08T20:00:34.747Z,10
2018-09-08T20:05:37.280Z,8
2018-09-08T20:10:39.688Z,7
2018-09-08T20:15:42.128Z,8
2018-09-08T20:20:44.579Z,7
2018-09-08T20:25:47.039Z,8
2018-09-08T20:30:49.523Z,7
2018-09-08T20:35:52.001Z,8
2018-09-08T20:40:54.416Z,8
2018-09-08T20:45:56.885Z,8
2018-09-08T20:50:59.335Z,8
2018-09-08T20:56:01.915Z,8
2018-09-08T21:01:04.250Z,8
2018-09-08T21:06:06.743Z,7
2018-09-08T21:11:09.164Z,7
2018-09-08T21:16:11.614Z,7
2018-09-08T21:21:14.096Z,7
2018-09-08T21:26:16.534Z,7
2018-09-08T21:31:19.000Z,7
2018-09-08T21:36:21.467Z,7
2018-09-08T21:41:23.913Z,8
2018-09-08T21:46:26.400Z,8
2018-09-08T21:51:28.863Z,8
2018-09-08T21:56:31.297Z,8
2018-09-08T22:01:33.737Z,8
2018-09-08T22:06:36.201Z,8
2018-09-08T22:11:38.667Z,7
2018-09-08T22:16:41.146Z,7
2018-09-08T22:21:43.561Z,7
2018-09-08T22:26:46.092Z,6
2018-09-08T22:31:48.490Z,7
2018-09-08T22:36:51.060Z,8
2018-09-08T22:41:53.415Z,7
2018-09-08T22:46:55.862Z,8
2018-09-08T22:51:58.326Z,7
2018-09-08T22:57:00.782Z,7
2018-09-08T23:02:03.347Z,7
2018-09-08T23:07:05.693Z,7
2018-09-08T23:12:08.187Z,7
2018-09-08T23:17:10.599Z,6
2018-09-08T23:22:13.087Z,6
2018-09-08T23:27:15.585Z,7
2018-09-08T23:32:17.985Z,7
2018-09-08T23:37:20.440Z,6
2018-09-08T23:42:22.895Z,7
2018-09-08T23:47:25.364Z,7
2018-09-08T23:52:27.822Z,8
2018-09-08T23:57:30.290Z,8
